Time;durP1;ratioP1;P1;durP2;ratioP2;P2;SDS_P1;SDS_P2;PMS_P1;PMS_P2;Temp;Humidity;BMP_temperature;BMP_pressure;BME280_temperature;BME280_humidity;BME280_pressure;Samples;Min_cycle;Max_cycle;Signal;HPM_P1;HPM_P2
2022/02/26 00:01:01;;;;;;;14.63;5.47;;;5.50;81.10;;;;;;5018563;28;20500;-48
2022/02/26 00:03:28;;;;;;;6.37;4.83;;;5.50;81.80;;;;;;5017733;28;20456;-48
2022/02/26 00:05:55;;;;;;;11.17;6.40;;;5.50;83.00;;;;;;5016522;28;20491;-47
2022/02/26 00:08:22;;;;;;;8.40;5.20;;;5.50;83.10;;;;;;5012749;28;20985;-47
2022/02/26 00:10:48;;;;;;;7.70;5.03;;;5.60;83.10;;;;;;5013454;28;20461;-48
2022/02/26 00:13:15;;;;;;;6.73;5.07;;;5.60;81.80;;;;;;5031096;28;20460;-48
2022/02/26 00:15:42;;;;;;;6.40;5.37;;;5.60;81.10;;;;;;5020285;28;20488;-47
2022/02/26 00:18:09;;;;;;;9.03;4.93;;;5.50;81.10;;;;;;5033565;28;20866;-48
2022/02/26 00:20:38;;;;;;;6.80;4.63;;;5.60;81.30;;;;;;5014428;28;20535;-48
2022/02/26 00:23:05;;;;;;;8.43;5.97;;;5.50;81.40;;;;;;5021798;28;20980;-48
2022/02/26 00:25:32;;;;;;;11.07;6.00;;;5.50;81.50;;;;;;5018373;28;20522;-47
2022/02/26 00:27:59;;;;;;;9.23;5.07;;;5.40;81.80;;;;;;5015930;28;20830;-47
2022/02/26 00:30:26;;;;;;;10.50;6.00;;;5.40;81.80;;;;;;5003208;28;20462;-47
2022/02/26 00:32:52;;;;;;;10.17;6.30;;;5.40;81.90;;;;;;5028366;28;20448;-48
2022/02/26 00:35:19;;;;;;;8.23;5.50;;;5.30;81.90;;;;;;5013884;28;21015;-47
2022/02/26 00:37:46;;;;;;;8.13;5.57;;;5.30;82.10;;;;;;5014404;28;20459;-47
2022/02/26 00:40:13;;;;;;;14.00;5.57;;;5.20;82.10;;;;;;5018999;28;20466;-47
2022/02/26 00:42:40;;;;;;;11.53;5.80;;;5.20;82.00;;;;;;5019225;28;20458;-48
2022/02/26 00:45:07;;;;;;;9.33;5.97;;;5.20;81.90;;;;;;5016416;28;20526;-48
2022/02/26 00:47:34;;;;;;;9.10;5.37;;;5.10;82.00;;;;;;5014248;28;20475;-48
2022/02/26 00:50:03;;;;;;;11.60;6.90;;;5.00;82.10;;;;;;5013144;28;20459;-47
2022/02/26 00:52:34;;;;;;;11.13;6.70;;;5.00;82.70;;;;;;5019318;28;20487;-48
2022/02/26 00:55:03;;;;;;;13.97;6.83;;;5.00;82.80;;;;;;5018306;28;20492;-48
2022/02/26 00:57:30;;;;;;;12.53;5.80;;;5.00;83.00;;;;;;5006978;28;20467;-48
2022/02/26 00:59:56;;;;;;;13.53;5.47;;;5.10;83.20;;;;;;5004050;28;20457;-48
2022/02/26 01:02:23;;;;;;;10.13;7.07;;;5.10;82.10;;;;;;5003673;28;20459;-47
2022/02/26 01:04:52;;;;;;;9.40;5.43;;;5.10;82.30;;;;;;5019900;28;20512;-47
2022/02/26 01:07:19;;;;;;;12.70;6.00;;;5.00;82.50;;;;;;5022539;28;20462;-48
2022/02/26 01:09:46;;;;;;;5.63;5.00;;;5.00;82.70;;;;;;5033108;28;20460;-48
2022/02/26 01:12:12;;;;;;;11.10;5.40;;;4.90;82.90;;;;;;5019286;28;20616;-48
2022/02/26 01:14:40;;;;;;;12.20;4.70;;;5.00;83.00;;;;;;5016347;28;20895;-48
2022/02/26 01:17:09;;;;;;;10.90;5.77;;;5.00;83.10;;;;;;5020134;28;20831;-48
2022/02/26 01:19:36;;;;;;;9.70;5.63;;;5.00;83.20;;;;;;5018174;28;20449;-48
2022/02/26 01:22:03;;;;;;;11.00;5.50;;;5.00;83.00;;;;;;5014929;28;20452;-48
2022/02/26 01:24:30;;;;;;;16.60;5.07;;;5.00;83.00;;;;;;5016044;28;20459;-48
2022/02/26 01:26:59;;;;;;;7.73;5.20;;;5.00;83.30;;;;;;5026273;28;20467;-47
2022/02/26 01:29:26;;;;;;;13.60;5.20;;;5.00;83.40;;;;;;5020744;28;20467;-48
2022/02/26 01:31:52;;;;;;;11.83;5.50;;;5.00;83.30;;;;;;5023782;28;20452;-48
2022/02/26 01:34:20;;;;;;;9.13;6.97;;;5.00;82.70;;;;;;5020719;28;20449;-47
2022/02/26 01:36:46;;;;;;;18.47;5.90;;;5.00;82.60;;;;;;5019159;28;20491;-47
2022/02/26 01:39:13;;;;;;;15.00;7.03;;;4.90;82.50;;;;;;5017118;28;20524;-47
2022/02/26 01:41:40;;;;;;;14.37;6.97;;;5.00;82.50;;;;;;4999711;28;20468;-47
2022/02/26 01:44:07;;;;;;;21.77;7.50;;;5.00;82.00;;;;;;5022369;28;20445;-47
2022/02/26 01:46:35;;;;;;;13.53;7.10;;;4.90;82.30;;;;;;5024524;28;20474;-47
2022/02/26 01:49:06;;;;;;;10.90;6.63;;;4.90;82.00;;;;;;5019926;28;20468;-47
2022/02/26 01:51:32;;;;;;;21.00;7.63;;;4.90;81.60;;;;;;5023644;28;20461;-47
2022/02/26 01:53:59;;;;;;;14.13;6.50;;;4.90;81.40;;;;;;5021537;28;20543;-47
2022/02/26 01:56:26;;;;;;;12.60;6.63;;;4.80;81.60;;;;;;5016974;28;20856;-47
2022/02/26 01:58:53;;;;;;;17.20;5.77;;;4.80;81.80;;;;;;5004952;28;20462;-47
2022/02/26 02:01:20;;;;;;;13.23;6.20;;;4.70;82.10;;;;;;5006646;28;20463;-47
2022/02/26 02:03:47;;;;;;;8.20;5.37;;;4.70;82.00;;;;;;5016004;28;21026;-47
2022/02/26 02:06:15;;;;;;;17.73;6.13;;;4.70;82.20;;;;;;5006729;28;20555;-47
2022/02/26 02:08:43;;;;;;;8.37;4.40;;;4.70;82.00;;;;;;5035892;28;20464;-47
2022/02/26 02:11:10;;;;;;;11.43;4.90;;;4.60;81.90;;;;;;5001653;28;20456;-47
2022/02/26 02:13:37;;;;;;;8.13;4.60;;;4.60;81.70;;;;;;5002098;28;20831;-47
2022/02/26 02:16:05;;;;;;;11.23;4.63;;;4.60;81.70;;;;;;5014995;28;20587;-47
2022/02/26 02:18:32;;;;;;;9.37;5.33;;;4.50;81.80;;;;;;5019159;28;20530;-47
2022/02/26 02:20:59;;;;;;;7.63;4.20;;;4.50;81.70;;;;;;4989456;28;20467;-47
2022/02/26 02:23:26;;;;;;;11.17;4.73;;;4.50;81.80;;;;;;5017545;28;20458;-47
2022/02/26 02:25:55;;;;;;;6.03;3.70;;;4.50;82.00;;;;;;5018503;28;20546;-47
2022/02/26 02:28:23;;;;;;;7.00;4.30;;;4.50;82.20;;;;;;5020328;28;21071;-47
2022/02/26 02:30:50;;;;;;;9.57;4.20;;;4.40;82.30;;;;;;5023182;28;20533;-47
2022/02/26 02:33:17;;;;;;;12.20;4.13;;;4.40;82.30;;;;;;5020391;28;20471;-47
2022/02/26 02:35:44;;;;;;;6.90;4.37;;;4.40;82.40;;;;;;5018975;28;20487;-47
2022/02/26 02:38:16;;;;;;;6.90;4.20;;;4.40;82.40;;;;;;5016637;28;20535;-47
2022/02/26 02:40:45;;;;;;;11.17;4.37;;;4.40;82.60;;;;;;5018287;28;20561;-47
2022/02/26 02:43:12;;;;;;;14.50;4.70;;;4.40;82.80;;;;;;5021078;28;20463;-48
2022/02/26 02:45:40;;;;;;;6.07;4.90;;;4.40;82.80;;;;;;5001009;28;20959;-47
2022/02/26 02:48:07;;;;;;;10.10;5.40;;;4.30;82.80;;;;;;5018063;28;20495;-47
2022/02/26 02:50:34;;;;;;;10.07;5.10;;;4.30;82.80;;;;;;5016651;28;20960;-47
2022/02/26 02:53:00;;;;;;;9.67;5.00;;;4.30;83.00;;;;;;5002742;28;20457;-47
2022/02/26 02:55:27;;;;;;;8.50;4.97;;;4.30;82.90;;;;;;5014672;28;20599;-47
2022/02/26 02:57:55;;;;;;;8.57;4.10;;;4.30;82.80;;;;;;5033838;28;20467;-48
2022/02/26 03:00:24;;;;;;;9.70;4.40;;;4.30;82.90;;;;;;5001242;28;20453;-48
2022/02/26 03:02:51;;;;;;;9.33;5.27;;;4.40;82.90;;;;;;5004775;28;20479;-47
2022/02/26 03:05:20;;;;;;;11.83;5.10;;;4.40;82.90;;;;;;5017483;28;20464;-47
2022/02/26 03:07:49;;;;;;;12.47;4.77;;;4.40;82.70;;;;;;5019325;28;20965;-47
2022/02/26 03:10:16;;;;;;;4.77;4.23;;;4.40;82.70;;;;;;5033807;28;20483;-47
2022/02/26 03:12:49;;;;;;;9.43;5.00;;;4.40;82.30;;;;;;5014508;28;20513;-47
2022/02/26 03:15:17;;;;;;;9.47;4.07;;;4.40;82.00;;;;;;5015217;28;21005;-47
2022/02/26 03:17:44;;;;;;;10.67;4.20;;;4.30;82.30;;;;;;5016820;28;20999;-47
2022/02/26 03:20:11;;;;;;;7.33;4.53;;;4.30;82.40;;;;;;5020453;28;20454;-47
2022/02/26 03:22:38;;;;;;;6.30;4.37;;;4.30;82.50;;;;;;5020832;28;20467;-47
2022/02/26 03:25:05;;;;;;;7.40;3.90;;;4.20;82.60;;;;;;5003553;28;20518;-47
2022/02/26 03:27:32;;;;;;;9.53;3.83;;;4.20;82.70;;;;;;5018094;28;20573;-47
2022/02/26 03:29:59;;;;;;;7.90;4.57;;;4.20;82.60;;;;;;5033386;28;20449;-47
2022/02/26 03:32:27;;;;;;;15.00;5.63;;;4.20;82.50;;;;;;5020504;28;20452;-47
2022/02/26 03:34:54;;;;;;;7.87;4.50;;;4.20;82.50;;;;;;5019209;28;20459;-47
2022/02/26 03:37:20;;;;;;;9.10;5.00;;;4.10;82.50;;;;;;5019303;28;20856;-47
2022/02/26 03:39:47;;;;;;;10.70;4.20;;;4.10;82.50;;;;;;5016066;28;20455;-47
2022/02/26 03:42:14;;;;;;;12.23;5.33;;;4.10;82.50;;;;;;5017691;28;20463;-47
2022/02/26 03:44:47;;;;;;;9.30;4.50;;;4.10;82.50;;;;;;5017489;28;20479;-47
2022/02/26 03:47:14;;;;;;;11.90;5.10;;;4.00;82.60;;;;;;5022675;28;21018;-47
2022/02/26 03:49:41;;;;;;;7.83;4.83;;;4.00;82.50;;;;;;5019817;28;20455;-47
2022/02/26 03:52:08;;;;;;;6.83;3.93;;;4.00;82.50;;;;;;5022793;28;20458;-47
2022/02/26 03:54:35;;;;;;;8.40;4.13;;;3.90;82.50;;;;;;5020809;28;20456;-49
2022/02/26 03:57:02;;;;;;;7.93;4.80;;;3.90;82.60;;;;;;5033067;28;21017;-49
2022/02/26 03:59:29;;;;;;;6.53;4.40;;;3.80;82.60;;;;;;5029629;28;21098;-49
2022/02/26 04:01:56;;;;;;;8.03;4.23;;;3.90;82.60;;;;;;5035139;28;20526;-49
2022/02/26 04:04:23;;;;;;;9.67;5.00;;;3.90;82.40;;;;;;5033006;28;20463;-49
2022/02/26 04:06:51;;;;;;;7.50;3.83;;;3.80;82.50;;;;;;5033501;28;21055;-49
2022/02/26 04:09:17;;;;;;;9.70;4.03;;;3.80;82.60;;;;;;5031116;28;20462;-49
2022/02/26 04:11:44;;;;;;;12.13;3.90;;;3.70;82.50;;;;;;5045214;28;20459;-50
2022/02/26 04:14:11;;;;;;;8.27;5.03;;;3.70;82.70;;;;;;5049765;28;20543;-50
2022/02/26 04:16:38;;;;;;;8.20;4.40;;;3.70;82.70;;;;;;5032216;28;20488;-50
2022/02/26 04:19:05;;;;;;;12.30;4.73;;;3.60;82.70;;;;;;5033189;28;20450;-50
2022/02/26 04:21:32;;;;;;;6.87;5.20;;;3.60;82.70;;;;;;5034592;28;20437;-50
2022/02/26 04:23:59;;;;;;;10.70;4.47;;;3.60;82.60;;;;;;5031276;28;20538;-50
2022/02/26 04:26:26;;;;;;;14.07;5.70;;;3.50;82.80;;;;;;5030687;28;20494;-49
2022/02/26 04:28:55;;;;;;;10.03;5.60;;;3.50;82.60;;;;;;5033933;28;20567;-50
2022/02/26 04:31:22;;;;;;;7.40;4.17;;;3.50;82.90;;;;;;5020840;28;20459;-50
2022/02/26 04:33:50;;;;;;;8.90;6.07;;;3.40;82.90;;;;;;5032810;28;20459;-50
2022/02/26 04:36:17;;;;;;;8.70;5.20;;;3.40;83.00;;;;;;5021891;28;21012;-50
2022/02/26 04:38:44;;;;;;;10.37;4.80;;;3.40;82.90;;;;;;5020307;28;20456;-50
2022/02/26 04:41:11;;;;;;;9.27;4.20;;;3.40;82.70;;;;;;5032827;28;20481;-50
2022/02/26 04:43:40;;;;;;;7.40;5.10;;;3.40;82.70;;;;;;5037287;28;20457;-49
2022/02/26 04:46:07;;;;;;;6.53;4.57;;;3.30;82.70;;;;;;5020787;28;20576;-49
2022/02/26 04:48:35;;;;;;;13.93;4.90;;;3.30;83.00;;;;;;5031256;28;20453;-50
2022/02/26 04:51:02;;;;;;;10.83;5.07;;;3.30;82.80;;;;;;5034627;28;20474;-49
2022/02/26 04:53:29;;;;;;;8.00;4.47;;;3.30;82.70;;;;;;5039319;28;20490;-49
2022/02/26 04:55:56;;;;;;;8.80;5.00;;;3.30;82.50;;;;;;5028750;28;21064;-50
2022/02/26 04:58:23;;;;;;;9.10;5.50;;;3.30;82.50;;;;;;5036686;28;20629;-49
2022/02/26 05:00:49;;;;;;;9.10;5.40;;;3.30;82.50;;;;;;5034025;28;20948;-50
2022/02/26 05:03:16;;;;;;;11.07;5.20;;;3.20;82.70;;;;;;5039072;28;20478;-50
2022/02/26 05:05:43;;;;;;;8.97;4.43;;;3.10;82.80;;;;;;5036634;28;21243;-50
2022/02/26 05:08:10;;;;;;;9.37;4.93;;;3.10;82.90;;;;;;5052789;28;20464;-50
2022/02/26 05:10:37;;;;;;;15.57;6.90;;;3.00;83.20;;;;;;5031571;28;20461;-50
2022/02/26 05:13:04;;;;;;;13.20;6.03;;;3.00;83.30;;;;;;5040379;28;20455;-49
2022/02/26 05:15:31;;;;;;;13.83;6.40;;;3.00;83.30;;;;;;5030968;28;20527;-50
2022/02/26 05:17:57;;;;;;;9.17;5.93;;;2.90;83.30;;;;;;5013185;28;20444;-50
2022/02/26 05:20:25;;;;;;;11.00;5.17;;;2.90;83.50;;;;;;5017350;28;20455;-50
2022/02/26 05:22:51;;;;;;;10.30;5.80;;;2.90;83.60;;;;;;5027849;28;20873;-50
2022/02/26 05:25:18;;;;;;;15.23;7.03;;;2.90;83.70;;;;;;5030686;28;20443;-49
2022/02/26 05:27:45;;;;;;;10.43;5.47;;;2.90;83.70;;;;;;5034391;28;20911;-49
2022/02/26 05:30:13;;;;;;;17.33;6.53;;;2.90;83.70;;;;;;5032879;28;20484;-50
2022/02/26 05:32:40;;;;;;;14.57;5.87;;;2.90;83.70;;;;;;5019511;28;20447;-50
2022/02/26 05:35:08;;;;;;;11.10;6.07;;;2.90;83.70;;;;;;5030843;28;20456;-50
2022/02/26 05:37:35;;;;;;;13.20;5.40;;;2.90;83.40;;;;;;5015667;28;20492;-50
2022/02/26 05:40:03;;;;;;;8.73;5.20;;;2.80;83.40;;;;;;5035329;28;20547;-50
2022/02/26 05:42:30;;;;;;;9.53;5.03;;;2.80;83.60;;;;;;5032318;28;20527;-50
2022/02/26 05:44:57;;;;;;;8.87;5.47;;;2.80;83.50;;;;;;5029403;28;20542;-49
2022/02/26 05:47:23;;;;;;;9.53;5.80;;;2.80;83.50;;;;;;5029103;28;20579;-49
2022/02/26 05:49:50;;;;;;;15.10;6.20;;;2.80;83.30;;;;;;5031089;28;20452;-50
2022/02/26 05:52:17;;;;;;;7.70;5.50;;;2.80;83.30;;;;;;5036375;28;20447;-50
2022/02/26 05:54:44;;;;;;;13.37;6.27;;;2.80;83.40;;;;;;5034804;28;20448;-50
2022/02/26 05:57:10;;;;;;;6.87;5.13;;;2.90;83.20;;;;;;5032651;28;20491;-50
2022/02/26 05:59:37;;;;;;;11.07;7.10;;;2.90;83.10;;;;;;5030535;28;20479;-49
2022/02/26 06:02:04;;;;;;;11.07;6.00;;;2.80;83.00;;;;;;5027277;28;20776;-50
2022/02/26 06:04:31;;;;;;;14.10;5.80;;;2.80;83.10;;;;;;5022967;28;20810;-50
2022/02/26 06:06:59;;;;;;;8.13;6.40;;;2.70;83.20;;;;;;5030998;28;20893;-50
2022/02/26 06:09:25;;;;;;;6.63;6.00;;;2.70;83.30;;;;;;5034400;28;20446;-49
2022/02/26 06:11:52;;;;;;;10.47;5.70;;;2.70;83.30;;;;;;5030846;28;20519;-50
2022/02/26 06:14:19;;;;;;;10.23;5.80;;;2.60;83.30;;;;;;5028164;28;20504;-50
2022/02/26 06:16:46;;;;;;;8.80;6.07;;;2.60;83.30;;;;;;5027404;28;20571;-49
2022/02/26 06:19:12;;;;;;;9.83;7.03;;;2.60;83.40;;;;;;5015602;28;20528;-50
2022/02/26 06:21:39;;;;;;;13.40;5.70;;;2.50;83.70;;;;;;5030056;28;20519;-49
2022/02/26 06:24:06;;;;;;;14.20;6.50;;;2.50;83.70;;;;;;5032578;28;20471;-50
2022/02/26 06:26:33;;;;;;;11.70;5.60;;;2.50;83.60;;;;;;5035112;28;20483;-50
2022/02/26 06:29:05;;;;;;;8.43;5.90;;;2.50;83.70;;;;;;5033583;28;20479;-50
2022/02/26 06:31:31;;;;;;;9.33;5.37;;;2.60;83.80;;;;;;5030455;28;20466;-50
2022/02/26 06:33:58;;;;;;;21.37;6.40;;;2.60;83.70;;;;;;5031096;28;20456;-50
2022/02/26 06:36:25;;;;;;;9.80;7.17;;;2.60;83.70;;;;;;5027693;28;20550;-50
2022/02/26 06:38:52;;;;;;;19.50;9.90;;;2.50;83.80;;;;;;5028741;28;20854;-50
2022/02/26 06:41:18;;;;;;;9.77;6.00;;;2.50;83.80;;;;;;5030168;28;20993;-50
2022/02/26 06:43:45;;;;;;;16.70;7.70;;;2.50;83.80;;;;;;5030471;28;20455;-50
2022/02/26 06:46:13;;;;;;;9.67;6.50;;;2.50;84.00;;;;;;5033327;28;20479;-50
2022/02/26 06:48:41;;;;;;;12.50;7.53;;;2.50;83.80;;;;;;5027529;28;20479;-50
2022/02/26 06:51:08;;;;;;;15.40;7.60;;;2.50;83.90;;;;;;5030128;28;20975;-50
2022/02/26 06:53:35;;;;;;;12.97;8.20;;;2.50;83.80;;;;;;5038301;28;20464;-50
2022/02/26 06:56:02;;;;;;;17.03;9.63;;;2.50;84.10;;;;;;5019860;28;20445;-50
2022/02/26 06:58:29;;;;;;;11.47;7.50;;;2.50;84.00;;;;;;5028140;28;20508;-50
2022/02/26 07:00:56;;;;;;;15.60;9.30;;;2.50;84.20;;;;;;5030201;28;20456;-50
2022/02/26 07:03:23;;;;;;;12.23;7.17;;;2.50;84.20;;;;;;5025381;28;20459;-50
2022/02/26 07:05:50;;;;;;;14.87;8.13;;;2.50;84.30;;;;;;5029789;28;20479;-50
2022/02/26 07:08:17;;;;;;;11.67;7.10;;;2.60;84.30;;;;;;5028077;28;20468;-50
2022/02/26 07:10:44;;;;;;;20.50;8.07;;;2.50;84.30;;;;;;5029849;28;20459;-50
2022/02/26 07:13:11;;;;;;;13.27;8.27;;;2.60;84.60;;;;;;5044854;28;20537;-50
2022/02/26 07:15:38;;;;;;;17.30;6.87;;;2.60;84.60;;;;;;5037906;28;20459;-50
2022/02/26 07:18:05;;;;;;;21.87;8.60;;;2.60;84.60;;;;;;5033543;28;20844;-50
2022/02/26 07:20:31;;;;;;;13.13;7.63;;;2.70;84.80;;;;;;5032313;28;20555;-50
2022/02/26 07:22:58;;;;;;;12.73;8.17;;;2.70;84.80;;;;;;5032820;28;20454;-50
2022/02/26 07:25:25;;;;;;;9.43;7.00;;;2.70;84.90;;;;;;5026211;28;20451;-50
2022/02/26 07:27:52;;;;;;;15.03;8.30;;;2.70;85.10;;;;;;5016098;28;20510;-50
2022/02/26 07:30:19;;;;;;;17.10;6.97;;;2.80;85.20;;;;;;5029840;28;20478;-51
2022/02/26 07:32:45;;;;;;;10.60;6.90;;;2.80;84.90;;;;;;5029149;28;20444;-50
2022/02/26 07:35:12;;;;;;;10.83;6.47;;;2.90;84.80;;;;;;5030383;28;20840;-50
2022/02/26 07:37:43;;;;;;;8.67;6.73;;;2.90;85.00;;;;;;5027122;28;20484;-50
2022/02/26 07:40:11;;;;;;;16.77;7.60;;;2.90;85.10;;;;;;5027541;28;20453;-49
2022/02/26 07:42:38;;;;;;;11.13;7.10;;;2.90;85.20;;;;;;5042603;28;20452;-50
2022/02/26 07:45:06;;;;;;;12.33;8.50;;;3.00;85.10;;;;;;5028228;28;20455;-50
2022/02/26 07:47:33;;;;;;;16.53;7.37;;;3.10;84.80;;;;;;5035312;28;20519;-50
2022/02/26 07:49:59;;;;;;;10.67;6.60;;;3.10;85.00;;;;;;5033452;28;20957;-50
2022/02/26 07:52:30;;;;;;;15.37;8.27;;;3.10;85.10;;;;;;5029126;28;20540;-50
2022/02/26 07:54:59;;;;;;;11.77;6.87;;;3.10;85.30;;;;;;5029222;28;20496;-51
2022/02/26 07:57:26;;;;;;;8.90;5.70;;;3.20;85.40;;;;;;5031630;28;20506;-52
2022/02/26 07:59:53;;;;;;;13.43;7.13;;;3.30;85.20;;;;;;5031123;28;20535;-50
2022/02/26 08:02:20;;;;;;;12.43;6.53;;;3.30;85.20;;;;;;5037489;28;20474;-50
2022/02/26 08:04:47;;;;;;;13.57;6.10;;;3.30;85.30;;;;;;5021861;28;20556;-50
2022/02/26 08:07:14;;;;;;;16.43;6.73;;;3.40;85.40;;;;;;5034841;28;20465;-50
2022/02/26 08:09:42;;;;;;;11.93;7.40;;;3.50;85.20;;;;;;5031044;28;20458;-50
2022/02/26 08:12:11;;;;;;;11.97;6.87;;;3.60;84.60;;;;;;5031532;28;20471;-50
2022/02/26 08:14:38;;;;;;;15.93;6.70;;;3.70;84.50;;;;;;5034363;28;20466;-49
2022/02/26 08:17:05;;;;;;;22.50;7.33;;;3.70;84.80;;;;;;5027200;28;20953;-49
2022/02/26 08:19:32;;;;;;;15.47;6.63;;;3.80;84.60;;;;;;5032512;28;20486;-50
2022/02/26 08:21:59;;;;;;;15.90;6.40;;;3.90;83.10;;;;;;5032551;28;20461;-50
2022/02/26 08:24:26;;;;;;;15.33;6.33;;;4.00;82.80;;;;;;5035379;28;20460;-49
2022/02/26 08:26:53;;;;;;;20.20;6.50;;;4.10;82.80;;;;;;5032686;28;20456;-50
2022/02/26 08:29:19;;;;;;;15.80;5.70;;;4.30;81.10;;;;;;5022115;28;20451;-49
2022/02/26 08:31:46;;;;;;;11.33;6.87;;;4.40;80.80;;;;;;5034607;28;20515;-49
2022/02/26 08:34:13;;;;;;;20.83;5.67;;;4.60;79.60;;;;;;5024844;28;21154;-49
2022/02/26 08:36:42;;;;;;;17.93;7.33;;;4.70;80.00;;;;;;5020812;28;20512;-50
2022/02/26 08:39:09;;;;;;;9.70;4.77;;;4.90;79.30;;;;;;5023389;28;20520;-50
2022/02/26 08:41:35;;;;;;;9.10;5.07;;;5.00;78.20;;;;;;5021683;28;20448;-50
2022/02/26 08:44:02;;;;;;;12.17;5.37;;;5.20;77.90;;;;;;5015852;28;20450;-50
2022/02/26 08:46:29;;;;;;;11.63;4.77;;;5.30;77.70;;;;;;5030717;28;20553;-49
2022/02/26 08:48:57;;;;;;;8.17;4.37;;;5.30;77.20;;;;;;5032220;28;20446;-49
2022/02/26 08:51:24;;;;;;;12.20;5.90;;;5.40;76.90;;;;;;5033468;28;20488;-49
2022/02/26 08:53:54;;;;;;;14.97;5.60;;;5.60;75.80;;;;;;5047760;28;20456;-49
2022/02/26 08:56:22;;;;;;;14.93;6.27;;;5.70;75.50;;;;;;5024178;28;20782;-49
2022/02/26 08:58:50;;;;;;;11.97;6.07;;;5.70;74.90;;;;;;5031480;28;20550;-49
2022/02/26 09:01:17;;;;;;;15.60;6.50;;;5.80;75.40;;;;;;5032911;28;20968;-49
2022/02/26 09:03:44;;;;;;;10.50;5.00;;;5.80;75.20;;;;;;5028056;28;20447;-49
2022/02/26 09:06:11;;;;;;;10.87;6.23;;;5.80;75.30;;;;;;5033877;28;20444;-50
2022/02/26 09:08:38;;;;;;;12.13;5.43;;;5.80;76.10;;;;;;5021179;28;21035;-49
2022/02/26 09:11:06;;;;;;;8.73;5.20;;;5.80;75.70;;;;;;5033624;28;20494;-50
2022/02/26 09:13:35;;;;;;;9.93;5.87;;;5.80;76.20;;;;;;5028273;28;20463;-49
2022/02/26 09:16:02;;;;;;;12.63;4.60;;;5.80;75.90;;;;;;5019868;28;20457;-49
2022/02/26 09:18:29;;;;;;;13.60;8.10;;;5.80;75.80;;;;;;5018915;28;20523;-50
2022/02/26 09:20:56;;;;;;;12.43;6.23;;;5.90;76.20;;;;;;5032142;28;20522;-50
2022/02/26 09:23:23;;;;;;;11.80;5.40;;;5.90;77.00;;;;;;5032435;28;20538;-50
2022/02/26 09:25:50;;;;;;;10.40;4.23;;;6.00;77.00;;;;;;5034333;28;20444;-49
2022/02/26 09:28:16;;;;;;;10.10;5.93;;;6.10;76.60;;;;;;5022044;28;20567;-49
2022/02/26 09:30:43;;;;;;;13.43;3.80;;;6.10;76.40;;;;;;5036271;28;20510;-50
2022/02/26 09:33:10;;;;;;;10.10;4.17;;;6.20;74.90;;;;;;5033492;28;20531;-49
2022/02/26 09:35:37;;;;;;;12.27;4.23;;;6.30;74.50;;;;;;5030395;28;20915;-49
2022/02/26 09:38:04;;;;;;;8.37;3.23;;;6.40;73.90;;;;;;5030493;28;20484;-49
2022/02/26 09:40:31;;;;;;;8.30;3.73;;;6.50;73.60;;;;;;5029397;28;20487;-50
2022/02/26 09:43:00;;;;;;;11.53;4.47;;;6.60;73.60;;;;;;5031202;28;20502;-50
2022/02/26 09:45:27;;;;;;;10.43;4.00;;;6.70;73.90;;;;;;5034276;28;20444;-50
2022/02/26 09:47:53;;;;;;;9.43;3.47;;;6.80;72.50;;;;;;5029887;28;20551;-50
2022/02/26 09:50:20;;;;;;;6.50;3.50;;;6.90;70.10;;;;;;5030314;28;20503;-49
2022/02/26 09:52:49;;;;;;;8.10;2.67;;;7.10;70.10;;;;;;5031708;28;20509;-50
2022/02/26 09:55:16;;;;;;;9.40;3.00;;;7.20;70.40;;;;;;5034427;28;20502;-50
2022/02/26 09:57:44;;;;;;;13.60;3.93;;;7.30;70.30;;;;;;5029728;28;20483;-50
2022/02/26 10:00:12;;;;;;;8.23;2.83;;;7.40;70.40;;;;;;5029134;28;20564;-49
2022/02/26 10:02:39;;;;;;;14.33;3.67;;;7.50;70.10;;;;;;5029839;28;20917;-50
2022/02/26 10:05:11;;;;;;;8.10;2.77;;;7.70;69.10;;;;;;5028864;28;20463;-50
2022/02/26 10:07:39;;;;;;;6.90;2.87;;;7.80;68.30;;;;;;5029880;28;20520;-50
2022/02/26 10:10:13;;;;;;;8.13;2.90;;;7.90;68.20;;;;;;5029151;28;20455;-50
2022/02/26 10:12:40;;;;;;;19.00;2.30;;;8.00;67.60;;;;;;5030311;28;20456;-50
2022/02/26 10:15:28;;;;;;;11.53;3.17;;;8.00;67.40;;;;;;5031241;28;20512;-50
2022/02/26 10:18:05;;;;;;;5.00;2.50;;;8.00;66.40;;;;;;5029330;28;20507;-50
2022/02/26 10:20:34;;;;;;;8.30;2.60;;;8.10;65.60;;;;;;5029831;28;20463;-50
2022/02/26 10:23:01;;;;;;;11.60;3.13;;;8.20;64.50;;;;;;5032219;28;20516;-50
2022/02/26 10:25:30;;;;;;;5.13;2.37;;;8.30;64.70;;;;;;5029605;28;20476;-50
2022/02/26 10:27:59;;;;;;;9.33;4.53;;;8.40;64.40;;;;;;5014960;28;20492;-50
2022/02/26 10:30:34;;;;;;;6.83;2.80;;;8.40;63.40;;;;;;5029457;28;20475;-50
2022/02/26 10:33:14;;;;;;;4.63;2.30;;;8.50;63.20;;;;;;5023560;28;20460;-50
2022/02/26 10:36:01;;;;;;;4.80;3.53;;;8.50;63.60;;;;;;5031618;28;20498;-50
2022/02/26 10:38:30;;;;;;;6.87;2.50;;;8.50;63.70;;;;;;5018448;28;20479;-50
2022/02/26 10:41:00;;;;;;;11.73;3.33;;;8.50;63.50;;;;;;5027342;28;21117;-50
2022/02/26 10:43:49;;;;;;;7.70;3.33;;;8.50;63.00;;;;;;5029436;28;20453;-50
2022/02/26 10:46:16;;;;;;;5.53;3.13;;;8.40;63.30;;;;;;5015924;28;20475;-50
2022/02/26 10:48:43;;;;;;;5.43;2.40;;;8.40;63.30;;;;;;5029074;28;20471;-50
2022/02/26 10:51:32;;;;;;;7.87;2.17;;;8.50;61.80;;;;;;5031098;28;20542;-50
2022/02/26 10:54:02;;;;;;;10.67;2.60;;;8.60;62.60;;;;;;5027493;28;20531;-50
2022/02/26 10:56:40;;;;;;;14.17;3.43;;;8.60;63.30;;;;;;5030316;28;20464;-50
2022/02/26 10:59:09;;;;;;;4.93;2.53;;;8.60;63.70;;;;;;5032007;28;20490;-50
2022/02/26 11:01:38;;;;;;;11.00;2.70;;;8.60;63.50;;;;;;5030340;28;20852;-50
2022/02/26 11:04:05;;;;;;;6.80;2.70;;;8.60;63.00;;;;;;5028717;28;20474;-50
2022/02/26 11:06:33;;;;;;;6.57;2.97;;;8.60;63.00;;;;;;5026727;28;20464;-50
2022/02/26 11:09:00;;;;;;;7.77;3.00;;;8.60;62.00;;;;;;5029081;28;20458;-50
2022/02/26 11:11:26;;;;;;;6.83;2.30;;;8.60;62.70;;;;;;5015454;28;20457;-50
2022/02/26 11:14:01;;;;;;;6.17;2.80;;;8.60;62.90;;;;;;5042702;28;20530;-50
2022/02/26 11:16:28;;;;;;;4.20;2.40;;;8.60;62.50;;;;;;5032617;28;21018;-51
2022/02/26 11:18:58;;;;;;;6.13;2.70;;;8.60;62.70;;;;;;5024654;28;21232;-51
2022/02/26 11:21:24;;;;;;;7.63;2.60;;;8.60;62.90;;;;;;5030159;28;20539;-50
2022/02/26 11:23:51;;;;;;;9.23;2.40;;;8.70;62.70;;;;;;5015120;28;20494;-50
2022/02/26 11:26:20;;;;;;;4.33;2.13;;;8.80;62.30;;;;;;5011518;28;20456;-50
2022/02/26 11:28:58;;;;;;;3.97;2.23;;;8.90;61.50;;;;;;5029601;28;20547;-50
2022/02/26 11:31:32;;;;;;;6.23;2.67;;;8.90;61.60;;;;;;5024561;28;20578;-50
2022/02/26 11:33:59;;;;;;;5.83;2.03;;;9.00;60.30;;;;;;5029095;28;20504;-50
2022/02/26 11:36:53;;;;;;;5.70;1.90;;;9.00;60.10;;;;;;5010261;28;20527;-50
2022/02/26 11:39:26;;;;;;;11.53;2.50;;;9.00;60.20;;;;;;5026372;28;20480;-50
2022/02/26 11:42:11;;;;;;;9.00;2.60;;;8.90;61.10;;;;;;5025634;28;20530;-50
2022/02/26 11:44:43;;;;;;;7.67;2.27;;;8.90;60.80;;;;;;5026505;28;20477;-50
2022/02/26 11:47:22;;;;;;;5.43;1.70;;;8.90;60.90;;;;;;5030089;28;20475;-50
2022/02/26 11:50:00;;;;;;;9.13;3.73;;;8.90;59.80;;;;;;5026798;28;20454;-50
2022/02/26 11:52:38;;;;;;;9.03;2.70;;;8.80;60.20;;;;;;5031699;28;20467;-50
2022/02/26 11:55:25;;;;;;;5.70;2.20;;;8.80;60.80;;;;;;5027663;28;20471;-50
2022/02/26 11:57:59;;;;;;;5.57;2.40;;;8.70;59.00;;;;;;5027528;28;21046;-50
2022/02/26 12:00:30;;;;;;;5.97;2.07;;;8.60;59.50;;;;;;5026764;28;20454;-50
2022/02/26 12:03:22;;;;;;;6.93;2.13;;;8.60;59.50;;;;;;5027284;28;20487;-50
2022/02/26 12:05:55;;;;;;;9.53;2.20;;;8.50;60.10;;;;;;5031448;28;21007;-50
2022/02/26 12:08:48;;;;;;;6.30;2.00;;;8.50;60.10;;;;;;5028970;28;20816;-50
2022/02/26 12:11:21;;;;;;;5.07;1.80;;;8.60;60.40;;;;;;5026303;28;20516;-50
2022/02/26 12:13:56;;;;;;;4.17;1.50;;;8.60;60.60;;;;;;5026751;28;20527;-50
2022/02/26 12:16:26;;;;;;;9.10;2.63;;;8.70;60.60;;;;;;5025262;28;21025;-50
2022/02/26 12:19:00;;;;;;;4.50;1.93;;;8.80;60.40;;;;;;5028296;28;20495;-50
2022/02/26 12:21:30;;;;;;;3.40;1.50;;;9.00;59.30;;;;;;5025569;28;20444;-51
2022/02/26 12:24:10;;;;;;;10.60;2.70;;;9.20;59.60;;;;;;5019611;28;20459;-50
2022/02/26 12:26:48;;;;;;;4.37;2.33;;;9.30;59.20;;;;;;5022192;28;20443;-50
2022/02/26 12:29:40;;;;;;;5.03;1.40;;;9.50;57.90;;;;;;5026171;28;20475;-51
2022/02/26 12:32:12;;;;;;;7.47;1.70;;;9.60;57.40;;;;;;5025354;28;20468;-51
2022/02/26 12:34:52;;;;;;;8.80;2.67;;;9.60;57.30;;;;;;5032345;28;20881;-51
2022/02/26 12:37:26;;;;;;;7.50;2.63;;;9.70;57.40;;;;;;5025292;28;20970;-51
2022/02/26 12:40:00;;;;;;;3.37;1.97;;;9.80;57.90;;;;;;5027208;28;20439;-51
2022/02/26 12:42:31;;;;;;;7.90;2.23;;;9.90;57.30;;;;;;5009364;28;20441;-51
2022/02/26 12:45:00;;;;;;;5.53;1.80;;;10.00;57.10;;;;;;5024934;28;20459;-51
2022/02/26 12:47:28;;;;;;;7.07;2.30;;;10.20;55.90;;;;;;5023755;28;20516;-51
2022/02/26 12:49:57;;;;;;;6.70;2.20;;;10.30;55.80;;;;;;5024037;28;20567;-51
2022/02/26 12:52:34;;;;;;;6.50;1.87;;;10.30;55.80;;;;;;5027959;28;20510;-51
2022/02/26 12:55:07;;;;;;;6.77;1.47;;;10.40;55.10;;;;;;5018540;28;20462;-51
2022/02/26 12:57:36;;;;;;;8.60;2.17;;;10.50;53.80;;;;;;5024983;28;20460;-51
2022/02/26 13:00:07;;;;;;;4.37;1.70;;;10.50;55.10;;;;;;5029445;28;20525;-51